KLNK/LNK METAR and TAF weather

Enter ICAO airport designator
Station Type Date Time Source
KLNK METAR 2018/12/13 05:54 UTC NOAA

KLNK 130554Z AUTO 00000KT 10SM CLR M03/M06 A2978 RMK AO2 SLP093 T10331056 10033 21039 400891056 51007


Station Type Date Time Source
KLNK Decoded METAR 2018/12/13 05:54 UTC NOAA

LINCOLN MUNICIPAL AIRPORT, NE, United States (KLNK) 40-50N 96-46W 364M
Dec 13, 2018 - 12:54 AM EST / 2018.12.13 0554 UTC
Wind: Calm:0
Visibility: 10 mile(s):0
Sky conditions: clear
Temperature: 26.1 F (-3.3 C)
Dew Point: 21.9 F (-5.6 C)
Relative Humidity: 84%
Pressure (altimeter): 29.78 in. Hg (1008 hPa)
Pressure tendency: 0.02 inches (0.7 hPa) higher than three hours ago
ob: KLNK 130554Z AUTO 00000KT 10SM CLR M03/M06 A2978 RMK AO2 SLP093 T10331056 10033 21039 400891056 51007
cycle: 6

Station Type Date Time Source
KLNK TAF 2018/12/13 06:22 UTC NOAA

TAF KLNK 130520Z 1306/1406 14003KT P6SM BKN150
FM130900 34005KT P6SM BKN150
FM131500 35015KT P6SM OVC015
FM132100 35016KT P6SM BKN050
FM132200 36008KT P6SM BKN250


Example: see airport list